createdAt,value
2022-11-21T00:00:29.689Z,7.50
2022-11-21T00:02:35.524Z,7.50
2022-11-21T00:04:39.838Z,7.50
2022-11-21T00:06:44.274Z,7.40
2022-11-21T00:08:48.786Z,7.40
2022-11-21T00:10:53.121Z,7.40
2022-11-21T00:12:58.219Z,7.30
2022-11-21T00:15:02.695Z,7.40
2022-11-21T00:17:06.900Z,7.30
2022-11-21T00:19:12.649Z,7.40
2022-11-21T00:21:19.025Z,7.40
2022-11-21T00:23:23.328Z,7.30
2022-11-21T00:25:27.813Z,7.40
2022-11-21T00:27:32.176Z,7.40
2022-11-21T00:29:36.506Z,7.40
2022-11-21T00:31:41.409Z,7.30
2022-11-21T00:33:46.253Z,7.30
2022-11-21T00:35:51.865Z,7.30
2022-11-21T00:37:56.216Z,7.30
2022-11-21T00:40:00.513Z,7.40
2022-11-21T00:42:05.079Z,7.30
2022-11-21T00:44:09.579Z,7.30
2022-11-21T00:46:14.014Z,7.30
2022-11-21T00:48:18.498Z,7.20
2022-11-21T00:50:22.743Z,7.10
2022-11-21T00:52:28.556Z,7.00
2022-11-21T00:54:33.137Z,6.90
2022-11-21T00:56:37.392Z,6.90
2022-11-21T00:58:41.857Z,6.90
2022-11-21T01:00:46.187Z,6.80
2022-11-21T01:02:50.417Z,6.70
2022-11-21T01:04:54.922Z,6.70
2022-11-21T01:06:59.371Z,6.60
2022-11-21T01:09:05.207Z,6.60
2022-11-21T01:11:11.865Z,6.70
2022-11-21T01:13:16.105Z,6.60
2022-11-21T01:15:20.475Z,6.60
2022-11-21T01:17:24.735Z,6.60
2022-11-21T01:19:29.030Z,6.60
2022-11-21T01:21:34.079Z,6.60
2022-11-21T01:23:38.293Z,6.50
2022-11-21T01:25:44.101Z,6.60
2022-11-21T01:27:48.306Z,6.50
2022-11-21T01:29:52.968Z,6.50
2022-11-21T01:31:57.678Z,6.60
2022-11-21T01:34:03.610Z,6.50
2022-11-21T01:36:12.119Z,6.50
2022-11-21T01:38:16.516Z,6.40
2022-11-21T01:40:21.074Z,6.20
2022-11-21T01:42:26.833Z,6.20
2022-11-21T01:44:48.049Z,6.20
2022-11-21T01:46:53.405Z,6.20
2022-11-21T01:49:03.486Z,6.20
2022-11-21T01:51:13.135Z,6.20
2022-11-21T01:53:18.146Z,6.20
2022-11-21T01:55:22.602Z,6.20
2022-11-21T01:57:31.803Z,6.20
2022-11-21T01:59:42.146Z,6.30
2022-11-21T02:01:48.832Z,6.30
2022-11-21T02:03:55.381Z,6.30
2022-11-21T02:06:00.756Z,6.20
2022-11-21T02:08:09.301Z,6.20
2022-11-21T02:10:15.028Z,6.10
2022-11-21T02:12:24.974Z,6.00
2022-11-21T02:14:51.286Z,6.00
2022-11-21T02:16:58.368Z,6.00
2022-11-21T02:19:02.746Z,6.00
2022-11-21T02:21:14.918Z,5.90
2022-11-21T02:23:26.789Z,5.90
2022-11-21T02:25:34.392Z,5.80
2022-11-21T02:27:39.133Z,5.80
2022-11-21T02:29:44.511Z,5.70
2022-11-21T02:31:48.976Z,5.80
2022-11-21T02:33:53.605Z,5.80
2022-11-21T02:35:59.739Z,5.80
2022-11-21T02:38:09.384Z,5.80
2022-11-21T02:40:18.614Z,5.80
2022-11-21T02:42:30.126Z,5.90
2022-11-21T02:44:40.546Z,5.90
2022-11-21T02:46:50.324Z,6.00
2022-11-21T02:48:55.022Z,6.10
2022-11-21T02:50:59.261Z,6.20
2022-11-21T02:53:03.812Z,6.20
2022-11-21T02:55:09.459Z,6.20
2022-11-21T02:57:13.837Z,6.20
2022-11-21T02:59:20.740Z,6.20
2022-11-21T03:01:25.252Z,6.20
2022-11-21T03:03:29.438Z,6.30
2022-11-21T03:05:34.290Z,6.30
2022-11-21T03:07:38.696Z,6.30
2022-11-21T03:09:43.253Z,6.30
2022-11-21T03:11:47.706Z,6.40
2022-11-21T03:13:52.203Z,6.40
2022-11-21T03:15:57.990Z,6.30
2022-11-21T03:18:03.395Z,6.30
2022-11-21T03:20:09.041Z,6.30
2022-11-21T03:22:15.646Z,6.30
2022-11-21T03:24:20.049Z,6.30
2022-11-21T03:26:24.341Z,6.30
2022-11-21T03:28:28.660Z,6.30
2022-11-21T03:30:33.033Z,6.30
2022-11-21T03:32:38.655Z,6.30
2022-11-21T03:34:43.029Z,6.40
2022-11-21T03:36:47.588Z,6.40
2022-11-21T03:38:51.873Z,6.40
2022-11-21T03:40:56.381Z,6.40
2022-11-21T03:43:06.084Z,6.40
2022-11-21T03:45:11.069Z,6.30
2022-11-21T03:47:15.271Z,6.30
2022-11-21T03:49:21.021Z,6.20
2022-11-21T03:51:25.860Z,6.10
2022-11-21T03:53:30.271Z,6.00
2022-11-21T03:55:34.528Z,5.90
2022-11-21T03:57:38.935Z,5.80
2022-11-21T03:59:43.171Z,5.60
2022-11-21T04:01:48.107Z,5.50
2022-11-21T04:03:53.343Z,5.30
2022-11-21T04:05:59.152Z,5.20
2022-11-21T04:08:03.423Z,5.10
2022-11-21T04:10:08.354Z,5.10
2022-11-21T04:12:12.859Z,5.10
2022-11-21T04:14:17.089Z,5.00
2022-11-21T04:16:22.084Z,5.10
2022-11-21T04:18:26.355Z,5.10
2022-11-21T04:20:30.668Z,5.10
2022-11-21T04:22:36.414Z,5.10
2022-11-21T04:24:40.692Z,5.20
2022-11-21T04:26:45.005Z,5.20
2022-11-21T04:28:49.194Z,5.30
2022-11-21T04:30:55.180Z,5.50
2022-11-21T04:33:00.091Z,5.50
2022-11-21T04:35:04.353Z,5.50
2022-11-21T04:37:11.566Z,5.50
2022-11-21T04:39:17.519Z,5.60
2022-11-21T04:41:21.903Z,5.70
2022-11-21T04:43:26.137Z,5.70
2022-11-21T04:45:30.659Z,5.60
2022-11-21T04:47:37.835Z,5.60
2022-11-21T04:49:42.223Z,5.70
2022-11-21T04:51:46.543Z,5.70
2022-11-21T04:53:51.092Z,5.70
2022-11-21T04:55:56.804Z,5.70
2022-11-21T04:58:01.428Z,5.80
2022-11-21T05:00:06.679Z,5.80
2022-11-21T05:02:11.480Z,5.80
2022-11-21T05:04:15.764Z,5.80
2022-11-21T05:06:20.259Z,5.80
2022-11-21T05:08:24.515Z,5.80
2022-11-21T05:10:29.056Z,5.80
2022-11-21T05:12:52.465Z,5.80
2022-11-21T05:14:56.849Z,5.80
2022-11-21T05:17:01.185Z,5.80
2022-11-21T05:19:05.413Z,5.70
2022-11-21T05:21:09.795Z,5.80
2022-11-21T05:23:14.549Z,5.80
2022-11-21T05:25:21.083Z,5.80
2022-11-21T05:27:25.439Z,5.80
2022-11-21T05:29:32.159Z,5.80
2022-11-21T05:31:36.893Z,5.80
2022-11-21T05:33:41.167Z,5.80
2022-11-21T05:35:45.506Z,5.80
2022-11-21T05:37:49.779Z,5.80
2022-11-21T05:39:54.032Z,5.70
2022-11-21T05:42:02.680Z,5.80
2022-11-21T05:44:06.445Z,5.70
2022-11-21T05:46:11.933Z,5.70
2022-11-21T05:48:16.050Z,5.70
2022-11-21T05:50:20.195Z,5.70
2022-11-21T05:52:24.454Z,5.70
2022-11-21T05:54:28.814Z,5.80
2022-11-21T05:56:33.329Z,5.70
2022-11-21T05:58:37.516Z,5.70
2022-11-21T06:00:42.463Z,5.70
2022-11-21T06:03:06.927Z,5.70
2022-11-21T06:05:11.270Z,5.60
2022-11-21T06:07:15.560Z,5.60
2022-11-21T06:09:19.903Z,5.60
2022-11-21T06:11:24.048Z,5.60
2022-11-21T06:13:28.868Z,5.60
2022-11-21T06:15:33.459Z,5.60
2022-11-21T06:17:37.570Z,5.50
2022-11-21T06:19:43.238Z,5.60
2022-11-21T06:21:48.088Z,5.50
2022-11-21T06:23:53.541Z,5.50
2022-11-21T06:25:59.473Z,5.40
2022-11-21T06:28:03.835Z,5.40
2022-11-21T06:30:10.255Z,5.40
2022-11-21T06:32:14.646Z,5.40
2022-11-21T06:34:19.391Z,5.50
2022-11-21T06:36:26.500Z,5.50
2022-11-21T06:38:30.876Z,5.50
2022-11-21T06:40:35.151Z,5.50
2022-11-21T06:42:39.825Z,5.60
2022-11-21T06:44:45.623Z,5.60
2022-11-21T06:46:51.599Z,5.70
2022-11-21T06:48:56.298Z,5.70
2022-11-21T06:51:00.516Z,5.80
2022-11-21T06:53:06.392Z,5.90
2022-11-21T06:55:11.851Z,5.90
2022-11-21T06:57:17.348Z,5.80
2022-11-21T06:59:21.676Z,5.80
2022-11-21T07:01:26.613Z,5.80
2022-11-21T07:03:31.299Z,5.70
2022-11-21T07:05:35.727Z,5.70
2022-11-21T07:07:40.331Z,5.60
2022-11-21T07:09:47.967Z,5.60
2022-11-21T07:11:55.449Z,5.70
2022-11-21T07:13:58.618Z,5.60
2022-11-21T07:16:04.830Z,5.60
2022-11-21T07:18:09.201Z,5.60
2022-11-21T07:20:13.766Z,5.50
2022-11-21T07:22:17.811Z,5.40
2022-11-21T07:24:21.999Z,5.40
2022-11-21T07:26:28.093Z,5.40
2022-11-21T07:28:32.871Z,5.50
2022-11-21T07:30:37.605Z,5.40
2022-11-21T07:32:42.543Z,5.50
2022-11-21T07:34:46.770Z,5.50
2022-11-21T07:36:51.109Z,5.50
2022-11-21T07:38:55.539Z,5.50
2022-11-21T07:40:59.922Z,5.50
2022-11-21T07:43:10.849Z,5.40
2022-11-21T07:45:16.327Z,5.40
2022-11-21T07:47:20.456Z,5.40
2022-11-21T07:49:24.825Z,5.50
2022-11-21T07:51:28.968Z,5.40
2022-11-21T07:53:33.230Z,5.40
2022-11-21T07:55:40.608Z,5.50
2022-11-21T07:57:45.157Z,5.50
2022-11-21T07:59:51.032Z,5.50
2022-11-21T08:01:55.398Z,5.50
2022-11-21T08:03:59.874Z,5.50
2022-11-21T08:06:04.956Z,5.50
2022-11-21T08:08:09.804Z,5.60
2022-11-21T08:10:14.028Z,5.60
2022-11-21T08:12:18.764Z,5.60
2022-11-21T08:14:22.950Z,5.60
2022-11-21T08:16:32.886Z,5.60
2022-11-21T08:18:37.760Z,5.60
2022-11-21T08:20:41.930Z,5.60
2022-11-21T08:22:46.093Z,5.70
2022-11-21T08:24:50.184Z,5.70
2022-11-21T08:26:54.881Z,5.80
2022-11-21T08:29:00.183Z,5.80
2022-11-21T08:31:05.874Z,5.90
2022-11-21T08:33:11.318Z,5.90
2022-11-21T08:35:15.512Z,6.00
2022-11-21T08:37:19.671Z,6.00
2022-11-21T08:39:26.073Z,6.00
2022-11-21T08:41:48.152Z,6.10
2022-11-21T08:43:57.397Z,6.10
2022-11-21T08:46:04.582Z,6.20
2022-11-21T08:48:13.047Z,6.30
2022-11-21T08:50:17.323Z,6.30
2022-11-21T08:52:21.490Z,6.40
2022-11-21T08:54:26.333Z,6.40
2022-11-21T08:56:30.852Z,6.40
2022-11-21T08:58:34.976Z,6.50
2022-11-21T09:00:41.401Z,6.50
2022-11-21T09:02:45.502Z,6.60
2022-11-21T09:04:51.348Z,6.70
2022-11-21T09:06:55.475Z,6.70
2022-11-21T09:08:59.541Z,6.80
2022-11-21T09:11:06.642Z,6.70
2022-11-21T09:13:13.481Z,6.70
2022-11-21T09:15:35.126Z,6.90
2022-11-21T09:17:56.940Z,6.80
2022-11-21T09:20:02.823Z,6.90
2022-11-21T09:22:06.987Z,6.90
2022-11-21T09:24:11.027Z,6.90
2022-11-21T09:26:15.289Z,6.90
2022-11-21T09:28:19.375Z,6.70
2022-11-21T09:30:23.424Z,6.80
2022-11-21T09:32:27.504Z,6.80
2022-11-21T09:34:31.881Z,6.70
2022-11-21T09:36:37.757Z,6.70
2022-11-21T09:38:41.897Z,6.80
2022-11-21T09:40:48.970Z,6.80
2022-11-21T09:43:06.189Z,6.80
2022-11-21T09:45:14.929Z,6.90
2022-11-21T09:47:25.422Z,6.80
2022-11-21T09:49:31.220Z,6.70
2022-11-21T09:51:40.027Z,6.70
2022-11-21T09:53:54.280Z,6.70
2022-11-21T09:56:00.995Z,6.60
2022-11-21T09:58:10.482Z,6.60
2022-11-21T10:00:20.760Z,6.60
2022-11-21T10:02:26.224Z,6.60
2022-11-21T10:04:30.815Z,6.70
2022-11-21T10:06:44.123Z,6.70
2022-11-21T10:08:57.028Z,6.70
2022-11-21T10:11:19.338Z,6.80
2022-11-21T10:13:40.285Z,6.90
2022-11-21T10:15:57.692Z,6.90
2022-11-21T10:18:14.857Z,7.00
2022-11-21T10:20:30.372Z,7.00
2022-11-21T10:22:54.777Z,7.00
2022-11-21T10:25:07.696Z,7.10
2022-11-21T10:27:17.302Z,7.00
2022-11-21T10:29:25.876Z,7.00
2022-11-21T10:31:32.554Z,7.00
2022-11-21T10:33:40.416Z,7.00
2022-11-21T10:35:48.375Z,7.00
2022-11-21T10:37:57.821Z,6.90
2022-11-21T10:40:15.885Z,6.90
2022-11-21T10:42:32.077Z,6.90
2022-11-21T10:44:53.586Z,6.90
2022-11-21T10:46:58.409Z,6.90
2022-11-21T10:49:03.806Z,7.00
2022-11-21T10:51:21.317Z,7.00
2022-11-21T10:53:45.365Z,7.10
2022-11-21T10:56:00.848Z,7.10
2022-11-21T10:58:18.883Z,7.20
2022-11-21T11:00:25.607Z,7.20
2022-11-21T11:02:29.714Z,7.20
2022-11-21T11:04:43.898Z,7.30
2022-11-21T11:06:51.908Z,7.30
2022-11-21T11:08:57.512Z,7.50
2022-11-21T11:11:08.576Z,7.60
2022-11-21T11:13:46.222Z,7.60
2022-11-21T11:16:02.957Z,7.60
2022-11-21T11:18:15.605Z,7.70
2022-11-21T11:20:38.903Z,7.70
2022-11-21T11:22:42.959Z,7.70
2022-11-21T11:24:59.120Z,7.80
2022-11-21T11:27:04.955Z,7.80
2022-11-21T11:29:11.631Z,7.90
2022-11-21T11:31:15.833Z,7.90
2022-11-21T11:33:35.362Z,8.00
2022-11-21T11:35:40.491Z,8.00
2022-11-21T11:37:51.877Z,8.00
2022-11-21T11:40:08.557Z,8.10
2022-11-21T11:43:05.717Z,8.00
2022-11-21T11:45:35.206Z,8.10
2022-11-21T11:47:48.935Z,8.20
2022-11-21T11:50:12.397Z,8.20
2022-11-21T11:52:16.995Z,8.30
2022-11-21T11:54:25.834Z,8.30
2022-11-21T11:56:37.121Z,8.40
2022-11-21T11:58:45.189Z,8.30
2022-11-21T12:00:55.466Z,8.20
2022-11-21T12:03:05.474Z,8.10
2022-11-21T12:05:12.283Z,8.10
2022-11-21T12:09:54.521Z,8.20
2022-11-21T12:12:08.282Z,8.20
2022-11-21T12:14:48.803Z,8.30
2022-11-21T12:16:54.214Z,8.30
2022-11-21T12:19:04.532Z,8.30
2022-11-21T12:21:10.492Z,8.40
2022-11-21T12:23:15.353Z,8.40
2022-11-21T12:25:23.002Z,8.40
2022-11-21T12:27:33.081Z,8.40
2022-11-21T12:29:50.726Z,8.50
2022-11-21T12:32:16.389Z,8.50
2022-11-21T12:34:43.717Z,8.50
2022-11-21T12:36:55.030Z,8.50
2022-11-21T12:39:30.826Z,8.50
2022-11-21T12:42:00.047Z,8.50
2022-11-21T12:44:14.964Z,8.50
2022-11-21T12:46:28.004Z,8.50
2022-11-21T12:49:14.206Z,8.60
2022-11-21T12:52:03.525Z,8.50
2022-11-21T12:54:33.424Z,8.50
2022-11-21T12:56:47.811Z,8.50
2022-11-21T12:58:54.970Z,8.60
2022-11-21T13:01:22.040Z,8.50
2022-11-21T13:03:48.822Z,8.50
2022-11-21T13:05:56.624Z,8.40
2022-11-21T13:08:04.704Z,8.40
2022-11-21T13:10:15.595Z,8.40
2022-11-21T13:12:26.916Z,8.40
2022-11-21T13:14:41.460Z,8.40
2022-11-21T13:16:54.509Z,8.40
2022-11-21T13:18:59.293Z,8.50
2022-11-21T13:21:03.948Z,8.50
2022-11-21T13:23:36.526Z,8.50
2022-11-21T13:25:49.641Z,8.60
2022-11-21T13:27:54.990Z,8.60
2022-11-21T13:30:34.788Z,8.60
2022-11-21T13:32:42.048Z,8.70
2022-11-21T13:34:46.525Z,8.70
2022-11-21T13:36:50.977Z,8.70
2022-11-21T13:39:33.999Z,8.70
2022-11-21T13:42:20.400Z,8.80
2022-11-21T13:44:38.915Z,8.80
2022-11-21T13:47:02.269Z,8.90
2022-11-21T13:49:12.921Z,8.80
2022-11-21T13:51:59.591Z,8.80
2022-11-21T13:54:38.537Z,8.80
2022-11-21T13:56:57.375Z,8.80
2022-11-21T13:59:12.340Z,8.80
2022-11-21T14:01:52.054Z,8.80
2022-11-21T14:04:27.707Z,8.90
2022-11-21T14:06:37.767Z,8.80
2022-11-21T14:08:43.872Z,8.90
2022-11-21T14:10:51.553Z,8.80
2022-11-21T14:12:57.343Z,8.80
2022-11-21T14:15:27.818Z,8.70
2022-11-21T14:17:45.027Z,8.70
2022-11-21T14:19:52.573Z,8.70
2022-11-21T14:21:57.043Z,8.70
2022-11-21T14:24:05.488Z,8.70
2022-11-21T14:26:18.530Z,8.70
2022-11-21T14:28:26.427Z,8.70
2022-11-21T14:30:34.198Z,8.70
2022-11-21T14:32:38.489Z,8.70
2022-11-21T14:34:42.721Z,8.70
2022-11-21T14:36:49.618Z,8.70
2022-11-21T14:39:29.108Z,8.60
2022-11-21T14:41:28.295Z,8.50
2022-11-21T14:43:34.694Z,8.50
2022-11-21T14:45:40.620Z,8.50
2022-11-21T14:47:52.230Z,8.50
2022-11-21T14:50:01.079Z,8.50
2022-11-21T14:52:22.197Z,8.50
2022-11-21T14:54:33.890Z,8.50
2022-11-21T14:56:38.640Z,8.50
2022-11-21T14:58:42.961Z,8.50
2022-11-21T15:01:03.133Z,8.60
2022-11-21T15:03:22.232Z,8.60
2022-11-21T15:06:00.324Z,8.70
2022-11-21T15:08:23.844Z,8.70
2022-11-21T15:10:30.857Z,8.70
2022-11-21T15:12:45.775Z,8.80
2022-11-21T15:14:54.244Z,8.80
2022-11-21T15:17:04.183Z,8.80
2022-11-21T15:19:11.052Z,8.70
2022-11-21T15:21:17.880Z,8.70
2022-11-21T15:23:32.479Z,8.70
2022-11-21T15:25:47.645Z,8.70
2022-11-21T15:27:54.476Z,8.60
2022-11-21T15:30:17.670Z,8.70
2022-11-21T15:32:24.704Z,8.60
2022-11-21T15:34:36.361Z,8.60
2022-11-21T15:36:41.194Z,8.60
2022-11-21T15:38:51.818Z,8.50
2022-11-21T15:41:04.782Z,8.50
2022-11-21T15:43:10.418Z,8.50
2022-11-21T15:45:27.944Z,8.50
2022-11-21T15:47:32.661Z,8.50
2022-11-21T15:49:37.445Z,8.50
2022-11-21T15:52:06.049Z,8.40
2022-11-21T15:54:13.253Z,8.40
2022-11-21T15:56:23.130Z,8.40
2022-11-21T15:58:28.130Z,8.40
2022-11-21T16:00:32.596Z,8.40
2022-11-21T16:02:38.032Z,8.40
2022-11-21T16:04:42.860Z,8.40
2022-11-21T16:06:48.044Z,8.30
2022-11-21T16:08:52.654Z,8.40
2022-11-21T16:10:58.515Z,8.30
2022-11-21T16:13:02.850Z,8.30
2022-11-21T16:15:08.376Z,8.30
2022-11-21T16:17:13.119Z,8.40
2022-11-21T16:19:17.996Z,8.30
2022-11-21T16:21:22.690Z,8.30
2022-11-21T16:23:37.692Z,8.30
2022-11-21T16:25:53.574Z,8.20
2022-11-21T16:28:05.692Z,8.20
2022-11-21T16:30:12.437Z,8.20
2022-11-21T16:32:16.876Z,8.30
2022-11-21T16:34:22.704Z,8.30
2022-11-21T16:36:28.503Z,8.30
2022-11-21T16:38:34.538Z,8.30
2022-11-21T16:40:40.929Z,8.30
2022-11-21T16:42:47.015Z,8.30
2022-11-21T16:44:56.117Z,8.30
2022-11-21T16:47:06.660Z,8.30
2022-11-21T16:49:16.203Z,8.30
2022-11-21T16:51:22.439Z,8.30
2022-11-21T16:53:26.893Z,8.30
2022-11-21T16:55:31.946Z,8.20
2022-11-21T16:57:37.549Z,8.20
2022-11-21T16:59:42.171Z,8.30
2022-11-21T17:01:47.974Z,8.30
2022-11-21T17:03:54.484Z,8.20
2022-11-21T17:05:59.623Z,8.20
2022-11-21T17:08:04.002Z,8.20
2022-11-21T17:10:09.969Z,8.20
2022-11-21T17:12:14.372Z,8.20
2022-11-21T17:14:18.720Z,8.30
2022-11-21T17:16:25.091Z,8.20
2022-11-21T17:18:32.119Z,8.20
2022-11-21T17:20:37.369Z,8.20
2022-11-21T17:22:42.859Z,8.20
2022-11-21T17:24:47.439Z,8.30
2022-11-21T17:26:53.826Z,8.30
2022-11-21T17:29:01.194Z,8.30
2022-11-21T17:31:07.913Z,8.30
2022-11-21T17:33:12.309Z,8.30
2022-11-21T17:35:18.788Z,8.30
2022-11-21T17:37:26.282Z,8.30
2022-11-21T17:39:32.540Z,8.30
2022-11-21T17:41:38.207Z,8.30
2022-11-21T17:43:44.652Z,8.30
2022-11-21T17:45:51.116Z,8.30
2022-11-21T17:47:56.455Z,8.30
2022-11-21T17:50:05.974Z,8.30
2022-11-21T17:52:14.012Z,8.30
2022-11-21T17:54:18.894Z,8.30
2022-11-21T17:56:25.275Z,8.40
2022-11-21T17:58:31.377Z,8.40
2022-11-21T18:00:35.743Z,8.40
2022-11-21T18:02:40.348Z,8.40
2022-11-21T18:04:45.209Z,8.40
2022-11-21T18:06:50.018Z,8.40
2022-11-21T18:08:57.718Z,8.40
2022-11-21T18:11:05.210Z,8.40
2022-11-21T18:13:10.154Z,8.40
2022-11-21T18:15:14.604Z,8.40
2022-11-21T18:17:18.994Z,8.40
2022-11-21T18:19:24.319Z,8.40
2022-11-21T18:21:31.433Z,8.40
2022-11-21T18:23:36.746Z,8.50
2022-11-21T18:25:43.112Z,8.50
2022-11-21T18:27:54.098Z,8.60
2022-11-21T18:29:59.611Z,8.60
2022-11-21T18:32:08.128Z,8.50
2022-11-21T18:34:12.741Z,8.50
2022-11-21T18:36:17.670Z,8.50
2022-11-21T18:38:46.681Z,8.50
2022-11-21T18:40:48.216Z,8.60
2022-11-21T18:42:53.485Z,8.70
2022-11-21T18:44:57.754Z,8.70
2022-11-21T18:47:01.971Z,8.70
2022-11-21T18:49:08.200Z,8.80
2022-11-21T18:51:15.446Z,8.70
2022-11-21T18:53:22.464Z,8.80
2022-11-21T18:55:27.994Z,8.80
2022-11-21T18:57:34.923Z,8.80
2022-11-21T18:59:39.604Z,8.80
2022-11-21T19:01:44.266Z,8.80
2022-11-21T19:03:49.204Z,8.80
2022-11-21T19:05:53.803Z,8.80
2022-11-21T19:07:58.605Z,8.80
2022-11-21T19:10:27.858Z,8.90
2022-11-21T19:12:36.310Z,8.90
2022-11-21T19:14:46.711Z,8.90
2022-11-21T19:16:51.135Z,8.90
2022-11-21T19:19:33.485Z,8.80
2022-11-21T19:21:27.512Z,8.90
2022-11-21T19:23:33.735Z,8.90
2022-11-21T19:25:42.284Z,9.00
2022-11-21T19:27:47.031Z,9.00
2022-11-21T19:29:55.660Z,9.00
2022-11-21T19:32:01.669Z,9.10
2022-11-21T19:34:08.398Z,9.10
2022-11-21T19:36:16.055Z,9.10
2022-11-21T19:38:22.630Z,9.00
2022-11-21T19:40:46.991Z,9.10
2022-11-21T19:42:51.434Z,9.00
2022-11-21T19:45:01.013Z,9.00
2022-11-21T19:47:06.356Z,9.00
2022-11-21T19:49:12.926Z,9.00
2022-11-21T19:51:18.734Z,9.00
2022-11-21T19:53:24.058Z,9.10
2022-11-21T19:55:31.148Z,9.00
2022-11-21T19:57:39.951Z,9.10
2022-11-21T19:59:46.857Z,9.20
2022-11-21T20:01:54.243Z,9.10
2022-11-21T20:04:03.437Z,9.10
2022-11-21T20:06:15.467Z,9.00
2022-11-21T20:08:22.457Z,8.90
2022-11-21T20:10:27.920Z,8.90
2022-11-21T20:12:32.601Z,8.80
2022-11-21T20:14:37.028Z,8.80
2022-11-21T20:16:45.804Z,8.80
2022-11-21T20:18:53.257Z,8.90
2022-11-21T20:20:58.323Z,8.80
2022-11-21T20:23:03.339Z,8.80
2022-11-21T20:25:09.271Z,8.80
2022-11-21T20:27:15.211Z,8.80
2022-11-21T20:29:20.705Z,8.80
2022-11-21T20:31:27.258Z,8.80
2022-11-21T20:33:35.728Z,8.80
2022-11-21T20:35:44.011Z,8.80
2022-11-21T20:37:48.222Z,8.80
2022-11-21T20:39:53.341Z,8.70
2022-11-21T20:41:58.293Z,8.70
2022-11-21T20:46:30.249Z,8.70
2022-11-21T20:48:36.726Z,8.70
2022-11-21T20:55:34.052Z,8.60
2022-11-21T20:57:38.316Z,8.60
2022-11-21T20:59:42.740Z,8.60
2022-11-21T21:01:47.352Z,8.60
2022-11-21T21:03:52.002Z,8.60
2022-11-21T21:06:02.816Z,8.60
2022-11-21T21:08:11.117Z,8.60
2022-11-21T21:10:15.698Z,8.60
2022-11-21T21:12:24.073Z,8.60
2022-11-21T21:14:28.590Z,8.60
2022-11-21T21:16:34.635Z,8.40
2022-11-21T21:18:39.886Z,8.20
2022-11-21T21:21:09.536Z,8.00
2022-11-21T21:23:11.531Z,7.80
2022-11-21T21:25:16.067Z,7.80
2022-11-21T21:27:20.611Z,7.80
2022-11-21T21:29:25.275Z,7.70
2022-11-21T21:31:30.868Z,7.60
2022-11-21T21:33:35.593Z,7.50
2022-11-21T21:35:40.137Z,7.40
2022-11-21T21:37:45.100Z,7.40
2022-11-21T21:39:51.475Z,7.50
2022-11-21T21:41:56.937Z,7.50
2022-11-21T21:44:01.246Z,7.60
2022-11-21T21:46:06.895Z,7.70
2022-11-21T21:48:11.762Z,7.70
2022-11-21T21:50:16.311Z,7.70
2022-11-21T21:52:22.190Z,7.70
2022-11-21T21:54:26.647Z,7.60
2022-11-21T21:56:32.767Z,7.50
2022-11-21T21:58:39.458Z,7.30
2022-11-21T22:00:44.596Z,7.20
2022-11-21T22:02:48.828Z,7.20
2022-11-21T22:04:53.204Z,7.20
2022-11-21T22:06:58.621Z,7.30
2022-11-21T22:09:03.287Z,7.30
2022-11-21T22:11:13.692Z,7.30
2022-11-21T22:13:19.685Z,7.30
2022-11-21T22:15:24.023Z,7.40
2022-11-21T22:17:28.366Z,7.20
2022-11-21T22:19:32.944Z,7.10
2022-11-21T22:21:39.485Z,7.10
2022-11-21T22:24:02.991Z,7.10
2022-11-21T22:26:11.022Z,7.20
2022-11-21T22:28:16.247Z,7.10
2022-11-21T22:30:23.529Z,7.00
2022-11-21T22:32:28.567Z,6.80
2022-11-21T22:34:33.182Z,6.70
2022-11-21T22:36:37.985Z,6.60
2022-11-21T22:38:42.432Z,6.60
2022-11-21T22:40:47.364Z,6.70
2022-11-21T22:42:52.825Z,6.70
2022-11-21T22:44:57.159Z,6.70
2022-11-21T22:47:03.045Z,6.70
2022-11-21T22:49:11.804Z,6.70
2022-11-21T22:51:17.427Z,6.60
2022-11-21T22:53:21.823Z,6.60
2022-11-21T22:55:26.549Z,6.60
2022-11-21T22:57:31.087Z,6.70
2022-11-21T22:59:35.942Z,6.60
2022-11-21T23:01:40.988Z,6.60
2022-11-21T23:03:47.653Z,6.60
2022-11-21T23:06:00.817Z,6.60
2022-11-21T23:08:09.054Z,6.60
2022-11-21T23:10:14.803Z,6.60
2022-11-21T23:12:19.034Z,6.60
2022-11-21T23:14:24.560Z,6.60
2022-11-21T23:16:29.751Z,6.60
2022-11-21T23:18:34.744Z,6.50
2022-11-21T23:20:41.817Z,6.50
2022-11-21T23:22:46.129Z,6.50
2022-11-21T23:24:50.389Z,6.50
2022-11-21T23:26:54.863Z,6.50
2022-11-21T23:29:06.696Z,6.50
2022-11-21T23:31:12.972Z,6.60
2022-11-21T23:33:17.619Z,6.60
2022-11-21T23:35:21.849Z,6.70
2022-11-21T23:37:27.785Z,6.70
2022-11-21T23:39:32.409Z,6.70
2022-11-21T23:41:37.317Z,6.70
2022-11-21T23:43:42.342Z,6.80
2022-11-21T23:45:50.953Z,6.80
2022-11-21T23:47:55.234Z,6.70
2022-11-21T23:50:00.117Z,6.60
2022-11-21T23:52:04.499Z,6.60
2022-11-21T23:54:10.396Z,6.60
2022-11-21T23:56:14.747Z,6.70
2022-11-21T23:58:20.051Z,6.60
